Time;durP1;ratioP1;P1;durP2;ratioP2;P2;SDS_P1;SDS_P2;PMS_P1;PMS_P2;Temp;Humidity;BMP_temperature;BMP_pressure;BME280_temperature;BME280_humidity;BME280_pressure;Samples;Min_cycle;Max_cycle;Signal;HPM_P1;HPM_P2
2023/09/15 00:00:47;;;;;;;1.45;0.52;;;;;;;31.32;nan;99872.84;7396413;19;20011;-54
2023/09/15 00:03:13;;;;;;;0.98;0.40;;;;;;;33.08;nan;99870.09;7396250;19;20010;-54
2023/09/15 00:05:39;;;;;;;0.65;0.35;;;;;;;33.14;nan;99869.69;7395841;19;20384;-54
2023/09/15 00:08:06;;;;;;;2.28;0.20;;;;;;;31.71;nan;99866.69;7394496;19;20739;-54
2023/09/15 00:10:34;;;;;;;0.40;0.40;;;;;;;30.66;nan;99871.28;7397929;19;20027;-54
2023/09/15 00:13:02;;;;;;;0.82;0.40;;;;;;;30.10;nan;99873.13;7394630;19;20359;-54
2023/09/15 00:15:28;;;;;;;0.20;0.20;;;;;;;29.97;nan;99863.63;7395224;19;20011;-54
2023/09/15 00:17:55;;;;;;;0.00;0.00;;;;;;;30.96;nan;99861.09;7394117;19;20013;-54
2023/09/15 00:20:21;;;;;;;0.20;0.17;;;;;;;30.18;nan;99862.94;7398766;19;20014;-54
2023/09/15 00:22:50;;;;;;;1.17;0.10;;;;;;;28.99;nan;99856.47;7395388;19;20018;-54
2023/09/15 00:25:20;;;;;;;1.08;0.30;;;;;;;28.81;nan;99860.81;7397407;19;20014;-54
2023/09/15 00:27:54;;;;;;;0.22;0.22;;;;;;;29.95;nan;99860.63;7395478;19;20039;-54
2023/09/15 00:30:22;;;;;;;0.45;0.20;;;;;;;29.50;nan;99864.53;7398254;19;20007;-54
2023/09/15 00:32:48;;;;;;;2.20;0.43;;;;;;;29.67;nan;99861.47;7395383;19;20070;-54
2023/09/15 00:35:16;;;;;;;0.00;0.00;;;;;;;29.82;nan;99852.53;7394289;19;20013;-54
2023/09/15 00:37:43;;;;;;;4.18;0.73;;;;;;;29.90;nan;99858.84;7394780;19;20400;-54
2023/09/15 00:40:10;;;;;;;1.48;0.43;;;;;;;30.91;nan;99857.19;7397866;19;20048;-54
2023/09/15 00:42:37;;;;;;;0.25;0.20;;;;;;;30.56;nan;99856.22;7393339;19;20471;-54
2023/09/15 00:45:05;;;;;;;1.85;0.63;;;;;;;29.90;nan;99860.97;7392464;19;20070;-54
2023/09/15 00:47:34;;;;;;;1.90;0.20;;;;;;;32.05;nan;99851.59;7394455;19;20002;-54
2023/09/15 00:50:02;;;;;;;0.15;0.05;;;;;;;33.27;nan;99849.53;7396159;19;20080;-55
2023/09/15 00:52:31;;;;;;;0.38;0.10;;;;;;;33.40;nan;99853.84;7391655;19;20075;-54
2023/09/15 00:54:58;;;;;;;7.97;0.45;;;;;;;32.88;nan;99851.56;7395998;19;20026;-55
2023/09/15 00:57:25;;;;;;;0.20;0.13;;;;;;;32.96;nan;99839.75;7394624;19;20019;-54
2023/09/15 00:59:52;;;;;;;0.10;0.00;;;;;;;33.25;nan;99840.00;7397033;19;20038;-54
2023/09/15 01:02:19;;;;;;;0.22;0.13;;;;;;;33.30;nan;99833.84;7393051;19;20105;-54
2023/09/15 01:04:46;;;;;;;2.17;0.13;;;;;;;33.27;nan;99840.13;7393943;19;20343;-54
2023/09/15 01:07:13;;;;;;;0.77;0.20;;;;;;;31.72;nan;99845.16;7393721;19;20411;-54
2023/09/15 01:09:40;;;;;;;0.57;0.28;;;;;;;31.92;nan;99840.69;7395798;19;20007;-54
2023/09/15 01:12:07;;;;;;;0.15;0.15;;;;;;;32.53;nan;99828.59;7393847;19;20010;-54
2023/09/15 01:14:35;;;;;;;0.20;0.15;;;;;;;33.24;nan;99827.72;7393777;19;20023;-54
2023/09/15 01:17:09;;;;;;;0.20;0.10;;;;;;;34.08;nan;99834.56;7393437;19;20029;-54
2023/09/15 01:20:13;;;;;;;0.20;0.20;;;;;;;34.15;nan;99818.28;7394731;19;20010;-54
2023/09/15 01:23:02;;;;;;;0.30;0.17;;;;;;;33.08;nan;99820.25;7396351;19;20007;-54
2023/09/15 01:25:51;;;;;;;0.47;0.40;;;;;;;32.81;nan;99823.75;7402405;19;20368;-54
2023/09/15 01:28:22;;;;;;;0.32;0.10;;;;;;;33.41;nan;99817.81;7401483;19;20015;-54
2023/09/15 01:30:50;;;;;;;;;;;;;;;34.67;nan;99823.16;7400915;19;20014;-54
2023/09/15 01:33:18;;;;;;;0.25;0.10;;;;;;;35.17;nan;99824.94;7401955;19;20228;-54
2023/09/15 01:35:45;;;;;;;0.10;0.00;;;;;;;33.68;nan;99823.66;7397394;19;20014;-54
2023/09/15 01:38:11;;;;;;;0.03;0.00;;;;;;;33.13;nan;99819.13;7400691;19;20018;-54
2023/09/15 01:40:37;;;;;;;0.68;0.47;;;;;;;36.41;nan;99815.50;7399498;19;20015;-54
2023/09/15 01:43:04;;;;;;;0.10;0.10;;;;;;;35.30;nan;99824.88;7399789;19;20022;-54
2023/09/15 01:45:30;;;;;;;1.65;0.28;;;;;;;34.96;nan;99826.81;7400248;19;20079;-54
2023/09/15 01:47:57;;;;;;;0.47;0.15;;;;;;;34.70;nan;99818.97;7402019;19;20031;-54
2023/09/15 01:50:25;;;;;;;0.08;0.00;;;;;;;33.51;nan;99819.16;7403387;19;20010;-54
2023/09/15 01:52:53;;;;;;;0.35;0.22;;;;;;;33.40;nan;99813.41;7399138;19;20036;-54
2023/09/15 01:55:21;;;;;;;0.20;0.10;;;;;;;32.61;nan;99811.78;7399589;19;20017;-54
2023/09/15 01:57:47;;;;;;;0.40;0.30;;;;;;;32.89;nan;99804.78;7399058;19;20046;-54
2023/09/15 02:00:14;;;;;;;0.00;0.00;;;;;;;32.86;nan;99808.16;7401159;19;20014;-54
2023/09/15 02:02:41;;;;;;;0.08;0.08;;;;;;;33.00;nan;99811.16;7398503;19;20019;-54
2023/09/15 02:05:23;;;;;;;0.50;0.20;;;;;;;33.94;nan;99801.25;7400320;19;20088;-54
2023/09/15 02:07:49;;;;;;;0.63;0.25;;;;;;;34.32;nan;99801.13;7399493;19;20014;-54
2023/09/15 02:10:15;;;;;;;1.63;0.30;;;;;;;34.43;nan;99802.41;7403493;19;20014;-54
2023/09/15 02:12:41;;;;;;;0.57;0.20;;;;;;;34.66;nan;99804.28;7400096;19;20010;-54
2023/09/15 02:15:08;;;;;;;0.17;0.00;;;;;;;35.58;nan;99808.13;7396893;19;20015;-54
2023/09/15 02:17:34;;;;;;;1.00;0.40;;;;;;;36.56;nan;99796.59;7398797;19;20411;-54
2023/09/15 02:20:00;;;;;;;0.82;0.20;;;;;;;37.11;nan;99798.19;7401750;19;20002;-54
2023/09/15 02:22:27;;;;;;;0.20;0.17;;;;;;;36.01;nan;99802.13;7398463;19;20035;-54
2023/09/15 02:24:53;;;;;;;0.75;0.10;;;;;;;36.10;nan;99792.38;7398157;19;20010;-54
2023/09/15 02:27:19;;;;;;;0.65;0.10;;;;;;;35.25;nan;99800.03;7399930;19;20451;-54
2023/09/15 02:29:45;;;;;;;1.48;0.08;;;;;;;35.47;nan;99792.38;7402612;19;20022;-54
2023/09/15 02:32:11;;;;;;;1.27;0.45;;;;;;;35.69;nan;99787.63;7399035;19;20014;-54
2023/09/15 02:34:39;;;;;;;0.40;0.10;;;;;;;35.99;nan;99788.28;7394157;19;20022;-54
2023/09/15 02:37:06;;;;;;;1.00;0.40;;;;;;;36.70;nan;99789.22;7399454;19;20018;-54
2023/09/15 02:39:35;;;;;;;2.88;0.60;;;;;;;37.21;nan;99789.88;7401124;19;20018;-54
2023/09/15 02:42:01;;;;;;;1.48;0.15;;;;;;;36.47;nan;99786.78;7397252;19;20376;-54
2023/09/15 02:44:29;;;;;;;1.25;0.55;;;;;;;35.26;nan;99789.91;7396608;19;20022;-54
2023/09/15 02:46:55;;;;;;;0.88;0.30;;;;;;;35.65;nan;99790.34;7397662;19;20035;-54
2023/09/15 02:49:22;;;;;;;0.75;0.10;;;;;;;35.80;nan;99789.59;7400174;19;20015;-54
2023/09/15 02:51:48;;;;;;;0.22;0.20;;;;;;;35.52;nan;99794.06;7398346;19;20010;-54
2023/09/15 02:54:14;;;;;;;0.22;0.10;;;;;;;34.87;nan;99789.44;7397144;19;20013;-54
2023/09/15 02:56:41;;;;;;;1.00;0.38;;;;;;;34.69;nan;99785.66;7398936;19;20014;-54
2023/09/15 02:59:07;;;;;;;0.90;0.15;;;;;;;34.28;nan;99789.34;7400072;19;20014;-54
2023/09/15 03:01:36;;;;;;;0.75;0.45;;;;;;;34.74;nan;99790.25;7396280;19;20021;-54
2023/09/15 03:04:03;;;;;;;0.35;0.10;;;;;;;34.37;nan;99790.53;7397045;19;20019;-54
2023/09/15 03:06:29;;;;;;;2.15;0.20;;;;;;;34.45;nan;99784.38;7395814;19;20039;-54
2023/09/15 03:08:55;;;;;;;3.75;0.80;;;;;;;34.67;nan;99782.66;7398811;19;20014;-54
2023/09/15 03:11:22;;;;;;;2.85;0.15;;;;;;;34.61;nan;99780.19;7396416;19;20394;-54
2023/09/15 03:13:54;;;;;;;0.52;0.30;;;;;;;34.84;nan;99784.94;7396615;19;20021;-54
2023/09/15 03:16:21;;;;;;;0.10;0.10;;;;;;;34.51;nan;99781.81;7395186;19;20030;-54
2023/09/15 03:18:49;;;;;;;0.00;0.00;;;;;;;34.67;nan;99782.66;7398354;19;20373;-54
2023/09/15 03:21:19;;;;;;;1.88;0.28;;;;;;;34.67;nan;99773.97;7397375;19;20034;-54
2023/09/15 03:23:48;;;;;;;1.27;0.20;;;;;;;34.68;nan;99773.31;7395633;19;20462;-54
2023/09/15 03:26:14;;;;;;;1.05;0.57;;;;;;;35.18;nan;99775.06;7398508;19;20034;-54
2023/09/15 03:28:44;;;;;;;1.85;0.45;;;;;;;35.10;nan;99765.25;7395844;19;20015;-54
2023/09/15 03:31:11;;;;;;;6.22;0.35;;;;;;;35.37;nan;99771.63;7395347;19;20018;-54
2023/09/15 03:33:37;;;;;;;0.30;0.30;;;;;;;35.53;nan;99760.06;7396005;19;20028;-54
2023/09/15 03:36:03;;;;;;;1.20;0.13;;;;;;;35.46;nan;99767.69;7395568;19;20027;-54
2023/09/15 03:38:29;;;;;;;0.57;0.20;;;;;;;35.65;nan;99754.81;7395998;19;20038;-54
2023/09/15 03:40:57;;;;;;;1.45;0.10;;;;;;;35.86;nan;99763.03;7394885;19;20641;-54
2023/09/15 03:43:25;;;;;;;0.47;0.32;;;;;;;35.71;nan;99752.22;7394766;19;20010;-54
2023/09/15 03:45:52;;;;;;;1.65;0.57;;;;;;;35.68;nan;99754.25;7395561;19;20018;-54
2023/09/15 03:48:19;;;;;;;0.40;0.20;;;;;;;35.75;nan;99758.94;7396040;19;20149;-54
2023/09/15 03:50:47;;;;;;;0.30;0.20;;;;;;;35.49;nan;99754.84;7394897;19;20333;-54
2023/09/15 03:53:13;;;;;;;1.27;0.10;;;;;;;35.93;nan;99755.34;7394836;19;20044;-54
2023/09/15 03:55:39;;;;;;;1.15;0.20;;;;;;;35.78;nan;99757.59;7394995;19;20373;-54
2023/09/15 03:58:05;;;;;;;0.10;0.10;;;;;;;35.72;nan;99754.44;7393688;19;20490;-54
2023/09/15 04:00:31;;;;;;;0.52;0.40;;;;;;;35.05;nan;99758.50;7397304;19;20059;-54
2023/09/15 04:02:58;;;;;;;0.30;0.10;;;;;;;34.61;nan;99759.22;7394727;19;20109;-54
2023/09/15 04:05:24;;;;;;;2.78;0.32;;;;;;;35.21;nan;99753.50;7394745;19;20017;-54
2023/09/15 04:07:50;;;;;;;0.38;0.38;;;;;;;34.88;nan;99750.41;7393600;19;20462;-54
2023/09/15 04:10:16;;;;;;;0.30;0.22;;;;;;;34.92;nan;99744.81;7398159;19;20018;-54
2023/09/15 04:12:42;;;;;;;1.58;0.60;;;;;;;35.39;nan;99742.75;7395956;19;20018;-54
2023/09/15 04:15:11;;;;;;;1.15;0.57;;;;;;;34.95;nan;99744.28;7395299;19;20018;-54
2023/09/15 04:17:38;;;;;;;1.27;0.32;;;;;;;35.08;nan;99742.72;7394698;19;20021;-53
2023/09/15 04:20:09;;;;;;;2.35;0.65;;;;;;;35.26;nan;99737.06;7396810;19;20363;-54
2023/09/15 04:22:40;;;;;;;0.75;0.28;;;;;;;35.22;nan;99743.38;7393276;19;20351;-54
2023/09/15 04:25:08;;;;;;;2.40;1.00;;;;;;;35.97;nan;99738.16;7395155;19;20111;-54
2023/09/15 04:27:34;;;;;;;2.47;0.40;;;;;;;37.30;nan;99737.88;7395376;19;20014;-54
2023/09/15 04:30:02;;;;;;;0.65;0.22;;;;;;;37.07;nan;99734.13;7397036;19;20025;-54
2023/09/15 04:32:46;;;;;;;1.50;0.40;;;;;;;36.91;nan;99733.47;7393644;19;20014;-55
2023/09/15 04:35:13;;;;;;;2.75;0.45;;;;;;;33.81;nan;99739.13;7392971;19;20018;-54
2023/09/15 04:37:39;;;;;;;1.00;0.20;;;;;;;35.72;nan;99731.25;7393249;19;20019;-54
2023/09/15 04:40:08;;;;;;;3.17;1.33;;;;;;;33.90;nan;99731.66;7395914;19;20498;-54
2023/09/15 04:42:34;;;;;;;0.43;0.20;;;;;;;40.31;nan;99717.19;7394488;19;20017;-54
2023/09/15 04:45:02;;;;;;;2.17;0.77;;;;;;;41.50;nan;99724.47;7393936;19;20039;-54
2023/09/15 04:47:31;;;;;;;1.55;0.50;;;;;;;41.80;nan;99711.94;7393174;19;20015;-54
2023/09/15 04:49:59;;;;;;;2.57;0.70;;;;;;;42.04;nan;99709.47;7395953;19;20011;-54
2023/09/15 04:52:25;;;;;;;2.50;0.60;;;;;;;42.36;nan;99715.91;7392369;19;20019;-54
2023/09/15 04:54:53;;;;;;;0.20;0.10;;;;;;;41.34;nan;99715.34;7394386;19;20019;-55
2023/09/15 04:57:20;;;;;;;3.45;0.90;;;;;;;38.57;nan;99720.72;7391034;19;20014;-55
2023/09/15 04:59:47;;;;;;;0.28;0.15;;;;;;;37.33;nan;99716.22;7398153;19;20022;-54
2023/09/15 05:02:13;;;;;;;0.15;0.10;;;;;;;37.02;nan;99708.50;7393097;19;20500;-56
2023/09/15 05:04:40;;;;;;;1.73;0.32;;;;;;;36.96;nan;99706.09;7393900;19;20473;-54
2023/09/15 05:07:07;;;;;;;3.13;0.73;;;;;;;36.47;nan;99714.25;7392238;19;20022;-54
2023/09/15 05:09:33;;;;;;;2.17;0.43;;;;;;;35.62;nan;99719.22;7394972;19;20010;-54
2023/09/15 05:12:00;;;;;;;1.88;0.77;;;;;;;35.32;nan;99717.06;7392847;19;20043;-54
2023/09/15 05:14:26;;;;;;;1.00;0.38;;;;;;;34.31;nan;99717.91;7392156;19;20039;-54
2023/09/15 05:16:54;;;;;;;2.42;0.50;;;;;;;34.19;nan;99718.06;7389843;19;20019;-54
2023/09/15 05:19:21;;;;;;;2.67;1.50;;;;;;;33.70;nan;99719.78;7392461;19;20034;-54
2023/09/15 05:21:47;;;;;;;3.50;0.90;;;;;;;33.25;nan;99721.63;7389588;19;20024;-54
2023/09/15 05:24:13;;;;;;;2.17;0.82;;;;;;;33.41;nan;99717.50;7392017;19;20014;-54
2023/09/15 05:26:39;;;;;;;1.63;0.63;;;;;;;33.02;nan;99725.44;7392162;19;20021;-54
2023/09/15 05:29:06;;;;;;;1.27;0.85;;;;;;;33.24;nan;99728.81;7392386;19;20014;-54
2023/09/15 05:31:32;;;;;;;2.20;1.02;;;;;;;32.90;nan;99739.16;7391385;19;20015;-54
2023/09/15 05:33:58;;;;;;;2.35;0.65;;;;;;;32.33;nan;99731.50;7390138;19;20026;-54
2023/09/15 05:36:25;;;;;;;0.57;0.43;;;;;;;31.46;nan;99725.47;7390002;19;20011;-54
2023/09/15 05:38:52;;;;;;;1.85;0.82;;;;;;;32.47;nan;99720.78;7396861;19;20014;-54
2023/09/15 05:41:18;;;;;;;4.30;0.98;;;;;;;33.74;nan;99725.78;7391263;19;20336;-54
2023/09/15 05:43:44;;;;;;;3.70;0.63;;;;;;;31.94;nan;99726.34;7392321;19;20018;-54
2023/09/15 05:46:10;;;;;;;8.63;1.30;;;;;;;31.52;nan;99728.72;7392909;19;20022;-54
2023/09/15 05:48:36;;;;;;;1.55;0.38;;;;;;;31.30;nan;99725.94;7395785;19;20022;-54
2023/09/15 05:51:04;;;;;;;0.88;0.35;;;;;;;31.15;nan;99737.94;7394695;19;20031;-54
2023/09/15 05:53:31;;;;;;;1.38;0.40;;;;;;;33.21;nan;99727.19;7392501;19;20011;-57
2023/09/15 05:55:58;;;;;;;2.53;0.50;;;;;;;32.87;nan;99723.13;7391977;19;20022;-57
2023/09/15 05:58:24;;;;;;;1.85;0.73;;;;;;;33.10;nan;99722.25;7393477;19;20026;-57
2023/09/15 06:00:55;;;;;;;0.63;0.40;;;;;;;31.15;nan;99726.41;7389927;19;20062;-60
2023/09/15 06:03:22;;;;;;;0.52;0.43;;;;;;;31.01;nan;99728.41;7393586;19;20044;-58
2023/09/15 06:05:48;;;;;;;1.33;0.57;;;;;;;31.22;nan;99731.19;7392453;19;20015;-58
2023/09/15 06:08:14;;;;;;;3.20;0.40;;;;;;;31.79;nan;99723.19;7396361;19;20455;-58
2023/09/15 06:10:41;;;;;;;3.45;0.98;;;;;;;33.23;nan;99725.16;7400186;19;20033;-59
2023/09/15 06:13:07;;;;;;;1.02;0.30;;;;;;;31.23;nan;99726.19;7400420;19;20031;-58
2023/09/15 06:15:34;;;;;;;1.90;0.55;;;;;;;31.72;nan;99729.97;7399483;19;20011;-58
2023/09/15 06:18:01;;;;;;;3.65;0.55;;;;;;;31.07;nan;99737.41;7399381;19;20011;-59
2023/09/15 06:20:30;;;;;;;7.47;1.38;;;;;;;31.26;nan;99742.94;7399144;19;20013;-59
2023/09/15 06:22:57;;;;;;;2.10;0.80;;;;;;;31.66;nan;99733.22;7399920;19;20019;-61
2023/09/15 06:25:23;;;;;;;1.10;0.75;;;;;;;31.58;nan;99737.75;7399081;19;20035;-59
2023/09/15 06:27:49;;;;;;;1.75;0.63;;;;;;;32.16;nan;99741.31;7402291;19;20014;-59
2023/09/15 06:30:16;;;;;;;1.65;0.50;;;;;;;32.77;nan;99731.94;7399597;19;20510;-59
2023/09/15 06:32:42;;;;;;;1.63;0.73;;;;;;;32.47;nan;99733.09;7399144;19;20013;-58
2023/09/15 06:35:13;;;;;;;4.22;1.08;;;;;;;33.38;nan;99735.34;7398413;19;20010;-59
2023/09/15 06:37:40;;;;;;;4.50;1.05;;;;;;;34.33;nan;99735.34;7400038;19;20046;-58
2023/09/15 06:40:07;;;;;;;5.22;1.27;;;;;;;34.03;nan;99740.34;7399087;19;20030;-59
2023/09/15 06:42:34;;;;;;;0.63;0.40;;;;;;;33.02;nan;99739.88;7399020;19;20015;-59
2023/09/15 06:45:02;;;;;;;5.45;0.80;;;;;;;32.38;nan;99733.97;7397609;19;20049;-58
2023/09/15 06:47:28;;;;;;;2.22;1.23;;;;;;;32.46;nan;99737.34;7399140;19;20015;-58
2023/09/15 06:49:55;;;;;;;2.17;0.57;;;;;;;32.35;nan;99732.38;7401672;19;20010;-56
2023/09/15 06:52:21;;;;;;;0.68;0.28;;;;;;;32.41;nan;99734.84;7398949;19;20467;-55
2023/09/15 06:54:47;;;;;;;2.63;0.40;;;;;;;33.29;nan;99733.41;7396968;19;20015;-55
2023/09/15 06:57:13;;;;;;;1.10;0.38;;;;;;;33.33;nan;99733.63;7396423;19;20364;-55
2023/09/15 06:59:39;;;;;;;0.65;0.38;;;;;;;32.51;nan;99733.31;7399931;19;20022;-56
2023/09/15 07:02:05;;;;;;;1.80;0.63;;;;;;;34.52;nan;99739.94;7397223;19;20023;-55
2023/09/15 07:04:32;;;;;;;1.02;0.68;;;;;;;35.25;nan;99736.31;7396408;19;20018;-55
2023/09/15 07:06:58;;;;;;;5.93;1.27;;;;;;;35.31;nan;99739.47;7397794;19;20007;-55
2023/09/15 07:09:24;;;;;;;2.00;0.77;;;;;;;34.37;nan;99743.50;7401856;19;20010;-55
2023/09/15 07:11:50;;;;;;;3.25;1.17;;;;;;;34.37;nan;99737.72;7397572;19;20018;-55
2023/09/15 07:14:17;;;;;;;1.45;0.38;;;;;;;35.14;nan;99736.47;7401023;19;20015;-55
2023/09/15 07:16:43;;;;;;;0.82;0.13;;;;;;;35.95;nan;99735.16;7395019;19;20038;-58
2023/09/15 07:19:10;;;;;;;4.90;1.02;;;;;;;37.65;nan;99726.16;7398569;19;20017;-59
2023/09/15 07:21:41;;;;;;;1.60;0.77;;;;;;;38.90;nan;99725.47;7395840;19;20015;-58
2023/09/15 07:24:08;;;;;;;1.13;0.63;;;;;;;38.64;nan;99724.59;7397360;19;20011;-58
2023/09/15 07:26:34;;;;;;;4.30;1.27;;;;;;;38.40;nan;99727.44;7397522;19;20011;-57
2023/09/15 07:29:00;;;;;;;0.93;0.50;;;;;;;37.87;nan;99727.00;7397929;19;20014;-58
2023/09/15 07:31:27;;;;;;;1.08;0.45;;;;;;;37.70;nan;99722.75;7396049;19;20022;-57
2023/09/15 07:33:53;;;;;;;1.30;0.40;;;;;;;37.72;nan;99725.75;7397033;19;20021;-57
2023/09/15 07:36:19;;;;;;;7.30;1.23;;;;;;;38.09;nan;99719.09;7393280;19;20038;-58
2023/09/15 07:38:46;;;;;;;4.70;1.08;;;;;;;38.31;nan;99725.69;7399805;19;20014;-58
2023/09/15 07:41:13;;;;;;;1.85;0.32;;;;;;;38.24;nan;99723.22;7399732;19;20460;-58
2023/09/15 07:43:39;;;;;;;2.00;1.20;;;;;;;38.39;nan;99725.97;7397210;19;20011;-59
2023/09/15 07:46:06;;;;;;;2.05;0.60;;;;;;;38.61;nan;99717.97;7397412;19;20014;-58
2023/09/15 07:48:32;;;;;;;1.75;0.35;;;;;;;39.09;nan;99718.06;7398217;19;20007;-58
2023/09/15 07:50:58;;;;;;;0.90;0.60;;;;;;;38.58;nan;99719.31;7395518;19;20011;-58
2023/09/15 07:53:24;;;;;;;2.95;1.08;;;;;;;39.64;nan;99718.28;7395612;19;20018;-58
2023/09/15 07:55:50;;;;;;;2.42;1.02;;;;;;;39.77;nan;99714.28;7394520;19;20021;-58
2023/09/15 07:58:16;;;;;;;1.67;0.38;;;;;;;39.56;nan;99715.16;7400153;19;20017;-58
2023/09/15 08:00:43;;;;;;;4.25;1.00;;;;;;;39.20;nan;99716.97;7396473;19;20101;-58
2023/09/15 08:03:09;;;;;;;1.10;0.35;;;;;;;38.66;nan;99718.84;7395290;19;20011;-58
2023/09/15 08:05:35;;;;;;;1.33;0.50;;;;;;;39.71;nan;99717.03;7396546;19;20495;-59
2023/09/15 08:08:02;;;;;;;1.67;0.95;;;;;;;39.66;nan;99712.50;7398986;19;20010;-58
2023/09/15 08:10:29;;;;;;;2.95;0.45;;;;;;;40.88;nan;99717.22;7399444;19;20029;-58
2023/09/15 08:12:55;;;;;;;0.47;0.20;;;;;;;41.81;nan;99710.47;7395514;19;20471;-58
2023/09/15 08:15:22;;;;;;;3.63;0.52;;;;;;;42.84;nan;99713.75;7396784;19;20477;-58
2023/09/15 08:17:49;;;;;;;1.08;0.55;;;;;;;42.76;nan;99721.69;7395444;19;20086;-58
2023/09/15 08:20:16;;;;;;;3.47;0.63;;;;;;;43.12;nan;99709.81;7397569;19;20014;-58
2023/09/15 08:22:42;;;;;;;1.75;0.43;;;;;;;43.64;nan;99713.44;7394091;19;20110;-58
2023/09/15 08:25:10;;;;;;;4.25;1.00;;;;;;;43.71;nan;99708.41;7394314;19;20023;-56
2023/09/15 08:27:37;;;;;;;1.45;0.52;;;;;;;44.06;nan;99707.31;7395012;19;20085;-56
2023/09/15 08:30:05;;;;;;;1.17;0.25;;;;;;;44.88;nan;99719.06;7397658;19;20039;-56
2023/09/15 08:32:31;;;;;;;2.75;0.45;;;;;;;44.88;nan;99716.13;7392015;19;20020;-57
2023/09/15 08:34:58;;;;;;;2.92;0.63;;;;;;;44.93;nan;99717.63;7393007;19;20048;-56
2023/09/15 08:37:24;;;;;;;2.53;0.95;;;;;;;45.75;nan;99721.03;7394531;19;20019;-56
2023/09/15 08:39:50;;;;;;;9.68;0.95;;;;;;;46.30;nan;99712.34;7396359;19;20070;-54
2023/09/15 08:42:23;;;;;;;5.35;1.08;;;;;;;45.25;nan;99717.84;7394108;19;20010;-54
2023/09/15 08:44:50;;;;;;;1.98;0.82;;;;;;;45.08;nan;99722.16;7394736;19;20018;-53
2023/09/15 08:47:18;;;;;;;1.13;0.40;;;;;;;45.25;nan;99717.84;7394302;19;20022;-55
2023/09/15 08:49:45;;;;;;;1.33;0.43;;;;;;;45.11;nan;99723.63;7398509;19;20018;-55
2023/09/15 08:52:15;;;;;;;5.55;1.17;;;;;;;45.19;nan;99720.75;7394217;19;20010;-53
2023/09/15 08:54:42;;;;;;;5.00;0.82;;;;;;;45.40;nan;99715.72;7394105;19;20015;-53
2023/09/15 08:57:08;;;;;;;2.00;0.65;;;;;;;45.96;nan;99724.78;7393411;19;20006;-53
2023/09/15 08:59:36;;;;;;;2.05;0.45;;;;;;;45.73;nan;99718.06;7397438;19;20044;-53
2023/09/15 09:02:03;;;;;;;2.63;0.40;;;;;;;45.54;nan;99718.72;7393804;19;20300;-53
2023/09/15 09:04:29;;;;;;;0.82;0.47;;;;;;;45.67;nan;99718.06;7393777;19;20347;-53
2023/09/15 09:07:00;;;;;;;5.05;1.05;;;;;;;45.54;nan;99713.56;7393319;19;20023;-53
2023/09/15 09:09:27;;;;;;;3.80;0.90;;;;;;;45.04;nan;99722.13;7398418;19;20039;-53
2023/09/15 09:11:53;;;;;;;1.75;0.57;;;;;;;45.25;nan;99711.22;7393841;19;20010;-53
2023/09/15 09:14:19;;;;;;;1.77;0.65;;;;;;;45.99;nan;99708.59;7393985;19;20021;-53
2023/09/15 09:16:47;;;;;;;0.85;0.45;;;;;;;46.34;nan;99715.28;7391338;19;20015;-53
2023/09/15 09:19:13;;;;;;;1.75;0.45;;;;;;;46.34;nan;99712.34;7395063;19;20002;-54
2023/09/15 09:21:39;;;;;;;2.58;0.70;;;;;;;45.95;nan;99707.84;7392299;19;20010;-53
2023/09/15 09:24:06;;;;;;;2.45;1.02;;;;;;;45.96;nan;99704.16;7392534;19;20011;-53
2023/09/15 09:26:33;;;;;;;2.88;0.85;;;;;;;46.30;nan;99715.28;7393175;19;20036;-53
2023/09/15 09:28:59;;;;;;;3.03;0.68;;;;;;;46.70;nan;99711.63;7394976;19;20018;-54
2023/09/15 09:31:27;;;;;;;2.33;1.08;;;;;;;46.71;nan;99719.72;7391696;19;20018;-53
2023/09/15 09:33:54;;;;;;;6.43;1.70;;;;;;;46.54;nan;99715.28;7392699;19;20032;-53
2023/09/15 09:36:20;;;;;;;2.30;0.70;;;;;;;46.60;nan;99721.16;7391430;19;20011;-53
2023/09/15 09:38:49;;;;;;;2.85;1.05;;;;;;;46.69;nan;99722.66;7394491;19;20077;-53
2023/09/15 09:41:21;;;;;;;4.18;0.57;;;;;;;46.38;nan;99721.16;7392789;19;20014;-53
2023/09/15 09:43:51;;;;;;;1.17;0.68;;;;;;;46.51;nan;99713.81;7395598;19;20467;-53
2023/09/15 09:46:21;;;;;;;8.18;1.23;;;;;;;46.52;nan;99721.19;7400803;19;20343;-53
2023/09/15 09:48:51;;;;;;;2.05;0.77;;;;;;;46.39;nan;99713.81;7403014;19;20010;-53
2023/09/15 09:51:18;;;;;;;4.80;1.05;;;;;;;46.43;nan;99713.81;7400852;19;20491;-53
2023/09/15 09:53:44;;;;;;;2.67;1.15;;;;;;;46.28;nan;99713.06;7398597;19;20010;-53
2023/09/15 09:56:10;;;;;;;1.63;0.70;;;;;;;46.30;nan;99724.13;7397763;19;20010;-53
2023/09/15 09:58:38;;;;;;;2.40;0.80;;;;;;;46.57;nan;99713.78;7399547;19;20023;-53
2023/09/15 10:01:06;;;;;;;5.47;1.20;;;;;;;46.63;nan;99702.03;7398933;19;20006;-54
2023/09/15 10:03:35;;;;;;;9.73;1.92;;;;;;;46.46;nan;99706.44;7399733;19;20014;-53
2023/09/15 10:06:03;;;;;;;5.95;1.05;;;;;;;46.32;nan;99704.25;7396929;19;20035;-53
2023/09/15 10:08:30;;;;;;;4.55;0.80;;;;;;;46.06;nan;99709.34;7399827;19;20011;-53
2023/09/15 10:10:57;;;;;;;2.00;0.57;;;;;;;44.97;nan;99705.91;7399125;19;20014;-53
2023/09/15 10:13:24;;;;;;;5.60;1.83;;;;;;;46.00;nan;99710.06;7399796;19;20021;-53
2023/09/15 10:15:51;;;;;;;5.45;1.40;;;;;;;39.17;nan;99712.50;7397769;19;20014;-53
2023/09/15 10:18:19;;;;;;;4.78;1.83;;;;;;;43.79;nan;99703.38;7399499;19;20018;-53
2023/09/15 10:20:49;;;;;;;2.08;1.05;;;;;;;45.97;nan;99710.78;7399198;19;20018;-53
2023/09/15 10:23:16;;;;;;;3.77;1.00;;;;;;;46.06;nan;99712.28;7398737;19;20018;-53
2023/09/15 10:25:49;;;;;;;1.40;0.68;;;;;;;45.90;nan;99701.19;7398475;19;20443;-53
2023/09/15 10:28:19;;;;;;;3.42;0.93;;;;;;;46.13;nan;99711.56;7397561;19;20014;-53
2023/09/15 10:30:46;;;;;;;3.73;0.70;;;;;;;46.54;nan;99700.56;7399214;19;20011;-53
2023/09/15 10:33:12;;;;;;;2.28;1.08;;;;;;;37.13;nan;99708.22;7398180;19;20097;-53
2023/09/15 10:35:45;;;;;;;13.57;1.83;;;;;;;45.13;nan;99706.00;7398029;19;20007;-53
2023/09/15 10:38:11;;;;;;;0.68;0.50;;;;;;;46.43;nan;99690.97;7397985;19;20015;-53
2023/09/15 10:40:48;;;;;;;2.80;0.60;;;;;;;45.99;nan;99693.13;7398378;19;20010;-53
2023/09/15 10:43:19;;;;;;;1.15;0.52;;;;;;;46.35;nan;99696.16;7396018;19;20017;-54
2023/09/15 10:45:58;;;;;;;;;;;;;;;46.47;nan;99699.06;7401357;19;20090;-53
2023/09/15 10:48:36;;;;;;;8.63;0.95;;;;;;;46.45;nan;99699.06;7399070;19;20001;-53
2023/09/15 10:51:07;;;;;;;0.68;0.30;;;;;;;45.75;nan;99690.84;7398382;19;20011;-53
2023/09/15 10:53:46;;;;;;;;;;;;;;;45.48;nan;99686.31;7399107;19;20017;-53
2023/09/15 10:56:15;;;;;;;0.63;0.20;;;;;;;45.52;nan;99683.41;7394444;19;19919;-53
2023/09/15 10:58:41;;;;;;;2.90;0.45;;;;;;;45.34;nan;99684.06;7400407;19;20332;-53
2023/09/15 11:01:10;;;;;;;2.05;0.80;;;;;;;44.36;nan;99681.91;7398429;19;20040;-53
2023/09/15 11:03:37;;;;;;;1.60;0.40;;;;;;;44.20;nan;99681.03;7400271;19;20038;-53
2023/09/15 11:06:08;;;;;;;1.65;0.65;;;;;;;44.21;nan;99674.44;7400064;19;20343;-53
2023/09/15 11:08:35;;;;;;;1.40;0.47;;;;;;;44.28;nan;99678.91;7399203;19;20010;-55
2023/09/15 11:11:04;;;;;;;1.52;0.88;;;;;;;44.19;nan;99668.56;7400012;19;20025;-56
2023/09/15 11:13:32;;;;;;;1.48;0.70;;;;;;;44.13;nan;99674.38;7398599;19;20010;-55
2023/09/15 11:15:59;;;;;;;2.05;1.27;;;;;;;43.93;nan;99659.47;7395590;19;20074;-55
2023/09/15 11:18:26;;;;;;;3.92;1.35;;;;;;;44.01;nan;99668.34;7395512;19;20017;-56
2023/09/15 11:20:52;;;;;;;3.25;0.90;;;;;;;43.77;nan;99676.94;7398369;19;20390;-57
2023/09/15 11:23:18;;;;;;;1.30;0.60;;;;;;;43.63;nan;99662.06;7396250;19;20462;-56
2023/09/15 11:25:44;;;;;;;1.33;0.73;;;;;;;43.50;nan;99669.25;7396788;19;20014;-55
2023/09/15 11:28:13;;;;;;;1.30;0.75;;;;;;;43.48;nan;99663.38;7397925;19;20070;-57
2023/09/15 11:30:41;;;;;;;4.95;1.02;;;;;;;43.83;nan;99665.25;7397506;19;20030;-56
2023/09/15 11:33:07;;;;;;;3.90;1.23;;;;;;;44.04;nan;99663.25;7397124;19;20011;-57
2023/09/15 11:35:34;;;;;;;6.55;1.30;;;;;;;44.05;nan;99667.69;7395242;19;20377;-57
2023/09/15 11:38:04;;;;;;;1.73;0.50;;;;;;;43.81;nan;99662.31;7398398;19;20010;-57
2023/09/15 11:40:33;;;;;;;2.00;0.80;;;;;;;43.73;nan;99659.25;7395444;19;20340;-57
2023/09/15 11:43:02;;;;;;;5.28;1.08;;;;;;;43.76;nan;99654.91;7397856;19;20007;-57
2023/09/15 11:45:30;;;;;;;1.00;0.50;;;;;;;43.86;nan;99651.34;7395976;19;20354;-56
2023/09/15 11:47:59;;;;;;;1.30;0.30;;;;;;;43.94;nan;99649.22;7396668;19;20375;-55
2023/09/15 11:50:27;;;;;;;3.97;0.90;;;;;;;44.08;nan;99645.69;7396566;19;20455;-54
2023/09/15 11:52:53;;;;;;;3.58;1.08;;;;;;;44.06;nan;99646.41;7395869;19;20010;-53